Time;durP1;ratioP1;P1;durP2;ratioP2;P2;SDS_P1;SDS_P2;PMS_P1;PMS_P2;Temp;Humidity;BMP_temperature;BMP_pressure;BME280_temperature;BME280_humidity;BME280_pressure;Samples;Min_cycle;Max_cycle;Signal;HPM_P1;HPM_P2
2022/06/16 00:01:23;;;;;;;5.83;2.57;;;;;;;12.84;100.00;100976.34;7392388;19;20504;-57
2022/06/16 00:03:55;;;;;;;6.00;2.43;;;;;;;12.89;100.00;100958.38;7386966;19;20423;-58
2022/06/16 00:06:25;;;;;;;4.37;1.97;;;;;;;12.87;100.00;100962.63;7394576;19;20986;-57
2022/06/16 00:08:55;;;;;;;7.53;2.10;;;;;;;12.90;100.00;100954.97;7386476;19;20470;-56
2022/06/16 00:11:25;;;;;;;7.20;2.50;;;;;;;12.88;100.00;100951.44;7392264;19;20435;-56
2022/06/16 00:13:55;;;;;;;6.77;2.57;;;;;;;12.85;100.00;100939.28;7385676;19;20438;-58
2022/06/16 00:16:25;;;;;;;6.77;2.50;;;;;;;12.81;100.00;100922.75;7394250;19;20387;-58
2022/06/16 00:18:57;;;;;;;3.50;2.00;;;;;;;12.69;100.00;100910.28;7385372;19;20456;-59
2022/06/16 00:21:27;;;;;;;3.73;2.20;;;;;;;12.67;100.00;100895.50;7394965;19;20430;-59
2022/06/16 00:23:57;;;;;;;12.00;2.80;;;;;;;12.73;100.00;100887.97;7385240;19;20431;-59
2022/06/16 00:26:29;;;;;;;6.07;1.83;;;;;;;12.63;100.00;100891.03;7394976;19;20414;-59
2022/06/16 00:28:59;;;;;;;6.83;2.33;;;;;;;12.63;100.00;100883.28;7386046;19;20517;-59
2022/06/16 00:31:30;;;;;;;10.47;2.40;;;;;;;12.65;100.00;100879.03;7395599;19;20386;-59
2022/06/16 00:34:02;;;;;;;4.00;2.40;;;;;;;12.70;100.00;100859.34;7387146;19;20779;-59
2022/06/16 00:36:32;;;;;;;6.63;2.20;;;;;;;12.67;100.00;100859.25;7395573;19;20463;-59
2022/06/16 00:39:02;;;;;;;5.33;2.33;;;;;;;12.70;100.00;100864.53;7374309;19;20441;-59
2022/06/16 00:41:31;;;;;;;7.27;2.13;;;;;;;12.83;100.00;100856.34;7395659;19;20385;-59
2022/06/16 00:44:02;;;;;;;10.60;2.93;;;;;;;12.81;100.00;100858.03;7388958;19;20437;-59
2022/06/16 00:46:32;;;;;;;6.93;2.60;;;;;;;12.49;100.00;100862.97;7395457;19;20389;-58
2022/06/16 00:49:08;;;;;;;8.53;2.73;;;;;;;12.58;100.00;100826.19;7386991;19;20421;-59
2022/06/16 00:51:40;;;;;;;3.90;2.20;;;;;;;12.62;100.00;100819.41;7395733;19;20393;-59
2022/06/16 00:54:11;;;;;;;3.83;1.87;;;;;;;12.57;100.00;100821.84;7395163;19;20958;-58
2022/06/16 00:56:41;;;;;;;6.97;2.30;;;;;;;12.37;100.00;100803.88;7395491;19;20412;-58
2022/06/16 00:59:11;;;;;;;7.90;2.60;;;;;;;12.29;100.00;100785.53;7392817;19;20441;-59
2022/06/16 01:01:42;;;;;;;4.80;2.20;;;;;;;12.34;100.00;100782.19;7395152;19;20711;-58
2022/06/16 01:06:59;;;;;;;6.50;2.33;;;;;;;12.20;100.00;100767.06;7386374;19;20462;-57
2022/06/16 01:09:32;;;;;;;4.87;2.30;;;;;;;12.12;100.00;100740.06;7393654;19;20400;-58
2022/06/16 01:15:02;;;;;;;10.30;2.80;;;;;;;12.22;100.00;100718.00;7394510;19;20386;-58
2022/06/16 01:17:37;;;;;;;4.53;2.30;;;;;;;12.22;100.00;100711.13;7387761;19;20419;-58
2022/06/16 01:20:22;;;;;;;5.20;2.50;;;;;;;12.26;100.00;100707.78;7392430;19;20429;-58
2022/06/16 01:23:11;;;;;;;5.33;1.80;;;;;;;12.36;100.00;100702.94;7385402;19;20997;-58
2022/06/16 01:26:04;;;;;;;5.97;2.47;;;;;;;12.34;100.00;100705.47;7387581;19;20409;-57
2022/06/16 01:28:35;;;;;;;4.40;2.43;;;;;;;12.29;100.00;100697.56;7384198;19;20420;-57
2022/06/16 01:31:10;;;;;;;5.13;2.40;;;;;;;12.09;100.00;100688.22;7389267;19;20415;-57
2022/06/16 01:33:43;;;;;;;5.10;2.37;;;;;;;11.94;100.00;100668.75;7384100;19;20429;-56
2022/06/16 01:36:18;;;;;;;4.00;2.40;;;;;;;11.91;100.00;100658.31;7391044;19;20395;-58
2022/06/16 01:38:53;;;;;;;7.20;2.70;;;;;;;11.85;100.00;100632.25;7383494;19;20410;-56
2022/06/16 01:41:32;;;;;;;5.60;2.20;;;;;;;11.86;100.00;100615.91;7386502;19;20422;-57
2022/06/16 01:44:06;;;;;;;6.00;2.77;;;;;;;11.92;100.00;100610.06;7382752;19;20408;-58
2022/06/16 01:46:40;;;;;;;5.83;2.60;;;;;;;11.89;100.00;100606.56;7390970;19;20969;-58
2022/06/16 01:49:13;;;;;;;8.20;2.43;;;;;;;11.86;100.00;100600.41;7389260;19;20510;-58
2022/06/16 01:51:45;;;;;;;3.13;2.10;;;;;;;11.84;100.00;100599.47;7390938;19;20920;-59
2022/06/16 01:54:18;;;;;;;6.10;2.10;;;;;;;11.79;100.00;100596.72;7388991;19;20415;-58
2022/06/16 01:56:51;;;;;;;6.43;2.50;;;;;;;11.73;100.00;100576.72;7385840;19;20399;-57
2022/06/16 01:59:25;;;;;;;7.67;2.50;;;;;;;11.66;100.00;100572.16;7392154;19;20375;-57
2022/06/16 02:02:01;;;;;;;7.33;2.90;;;;;;;11.74;100.00;100551.72;7387885;19;20387;-56
2022/06/16 02:04:36;;;;;;;4.50;2.40;;;;;;;11.70;100.00;100550.75;7394030;19;20419;-59
2022/06/16 02:07:08;;;;;;;4.40;2.50;;;;;;;11.73;100.00;100561.22;7387450;19;21239;-58
2022/06/16 02:09:42;;;;;;;5.37;2.70;;;;;;;11.73;100.00;100571.53;7393949;19;20759;-56
2022/06/16 02:12:55;;;;;;;14.37;7.30;;;;;;;11.80;100.00;100562.28;7386619;19;20411;-59
2022/06/16 02:15:06;;;;;;;73.37;36.23;;;;;;;11.96;100.00;100555.03;7393229;19;20417;-59
2022/06/16 02:17:38;;;;;;;9.40;4.03;;;;;;;11.97;100.00;100552.53;7389019;19;20422;-57
2022/06/16 02:20:08;;;;;;;13.23;7.90;;;;;;;11.87;100.00;100553.03;7391650;19;20942;-58
2022/06/16 02:22:38;;;;;;;4.13;2.40;;;;;;;11.84;100.00;100558.13;7380761;19;20456;-59
2022/06/16 02:25:09;;;;;;;7.27;2.73;;;;;;;11.84;100.00;100555.53;7393468;19;20905;-59
2022/06/16 02:27:38;;;;;;;8.77;3.23;;;;;;;11.89;100.00;100564.28;7386591;19;20493;-59
2022/06/16 02:30:13;;;;;;;7.30;2.90;;;;;;;11.99;100.00;100568.94;7391860;19;20408;-58
2022/06/16 02:32:52;;;;;;;6.90;3.40;;;;;;;12.02;100.00;100571.63;7385795;19;20417;-59
2022/06/16 02:35:27;;;;;;;7.20;4.10;;;;;;;12.07;100.00;100570.94;7392808;19;20387;-59
2022/06/16 02:38:11;;;;;;;6.50;2.77;;;;;;;11.90;100.00;100563.50;7385171;19;20414;-56
2022/06/16 02:40:52;;;;;;;8.90;4.17;;;;;;;11.97;100.00;100565.44;7390792;19;20448;-58
2022/06/16 02:43:39;;;;;;;9.10;3.90;;;;;;;11.94;100.00;100570.50;7385404;19;20421;-59
2022/06/16 02:46:14;;;;;;;3.50;2.30;;;;;;;11.77;100.00;100567.34;7392711;19;20724;-57
2022/06/16 02:48:51;;;;;;;6.37;2.40;;;;;;;11.72;100.00;100574.06;7387874;19;20512;-56
2022/06/16 02:51:23;;;;;;;8.67;2.63;;;;;;;11.79;100.00;100564.84;7391400;19;20829;-57
2022/06/16 02:53:58;;;;;;;5.73;3.10;;;;;;;11.79;100.00;100570.00;7393177;19;20756;-57
2022/06/16 02:56:32;;;;;;;7.43;3.27;;;;;;;11.74;100.00;100573.28;7399940;19;20397;-59
2022/06/16 02:59:07;;;;;;;8.00;3.33;;;;;;;11.81;100.00;100570.91;7391545;19;20424;-59
2022/06/16 03:01:36;;;;;;;10.03;2.83;;;;;;;11.80;100.00;100569.16;7397700;19;20382;-58
2022/06/16 03:04:12;;;;;;;8.63;3.20;;;;;;;11.81;100.00;100573.50;7392365;19;21130;-57
2022/06/16 03:06:41;;;;;;;4.73;2.70;;;;;;;11.69;100.00;100581.72;7399626;19;20782;-58
2022/06/16 03:09:11;;;;;;;7.43;3.30;;;;;;;11.71;100.00;100590.41;7399234;19;20440;-56
2022/06/16 03:11:42;;;;;;;5.57;2.70;;;;;;;11.69;100.00;100587.75;7399876;19;20397;-56
2022/06/16 03:14:11;;;;;;;5.57;2.77;;;;;;;11.72;100.00;100590.47;7398082;19;20500;-58
2022/06/16 03:16:41;;;;;;;5.23;2.47;;;;;;;11.71;100.00;100596.47;7399155;19;20459;-58
2022/06/16 03:19:13;;;;;;;6.80;2.70;;;;;;;11.68;100.00;100603.22;7397457;19;20426;-56
2022/06/16 03:21:43;;;;;;;5.13;3.30;;;;;;;11.59;100.00;100609.81;7396824;19;20387;-59
2022/06/16 03:24:12;;;;;;;7.77;3.87;;;;;;;11.58;100.00;100599.44;7398020;19;20415;-57
2022/06/16 03:26:42;;;;;;;6.00;3.73;;;;;;;11.65;100.00;100609.19;7399258;19;20401;-58
2022/06/16 03:29:11;;;;;;;9.43;3.43;;;;;;;11.72;100.00;100611.16;7397037;19;20420;-58
2022/06/16 03:31:41;;;;;;;5.90;3.40;;;;;;;11.74;100.00;100606.91;7398822;19;20765;-58
2022/06/16 03:34:13;;;;;;;5.80;3.27;;;;;;;11.73;100.00;100606.84;7397428;19;20410;-58
2022/06/16 03:36:43;;;;;;;8.73;3.40;;;;;;;11.78;100.00;100600.13;7398320;19;20390;-58
2022/06/16 03:39:13;;;;;;;7.47;2.60;;;;;;;11.71;100.00;100614.56;7396661;19;20410;-59
2022/06/16 03:41:42;;;;;;;8.77;3.37;;;;;;;11.86;100.00;100621.06;7396908;19;20380;-59
2022/06/16 03:44:12;;;;;;;8.33;3.00;;;;;;;11.86;100.00;100615.91;7397568;19;20406;-59
2022/06/16 03:46:42;;;;;;;6.07;2.73;;;;;;;11.96;100.00;100624.84;7398383;19;20753;-56
2022/06/16 03:49:14;;;;;;;6.33;3.10;;;;;;;11.87;100.00;100622.84;7396449;19;20972;-56
2022/06/16 03:51:44;;;;;;;5.40;2.90;;;;;;;11.87;100.00;100621.13;7398096;19;20477;-57
2022/06/16 03:54:13;;;;;;;6.40;3.47;;;;;;;11.84;100.00;100622.75;7397399;19;20761;-54
2022/06/16 03:56:44;;;;;;;8.27;3.37;;;;;;;11.85;100.00;100637.41;7398250;19;20409;-57
2022/06/16 03:59:14;;;;;;;11.90;3.70;;;;;;;11.89;100.00;100636.69;7395959;19;20418;-59
2022/06/16 04:01:44;;;;;;;5.60;3.70;;;;;;;11.90;100.00;100643.63;7396565;19;20383;-59
2022/06/16 04:04:16;;;;;;;6.40;3.97;;;;;;;11.96;100.00;100661.06;7394958;19;20415;-58
2022/06/16 04:06:45;;;;;;;7.90;3.67;;;;;;;12.00;100.00;100671.53;7389512;19;20396;-57
2022/06/16 04:09:15;;;;;;;5.37;3.30;;;;;;;12.01;100.00;100670.72;7395991;19;20396;-58
2022/06/16 04:11:45;;;;;;;6.17;3.30;;;;;;;12.22;100.00;100674.03;7392137;19;20387;-61
2022/06/16 04:14:16;;;;;;;15.33;5.03;;;;;;;12.47;100.00;100677.41;7399156;19;20415;-57
2022/06/16 04:16:49;;;;;;;27.40;15.77;;;;;;;12.50;100.00;100674.91;7389816;19;20466;-57
2022/06/16 04:19:23;;;;;;;10.40;6.73;;;;;;;12.73;100.00;100675.69;7395727;19;20383;-59
2022/06/16 04:21:54;;;;;;;7.33;4.37;;;;;;;12.72;100.00;100666.13;7388047;19;20398;-58
2022/06/16 04:24:25;;;;;;;12.47;6.37;;;;;;;12.55;100.00;100656.16;7395986;19;20391;-58
2022/06/16 04:26:54;;;;;;;20.93;12.33;;;;;;;12.85;100.00;100669.09;7394216;19;20391;-57
2022/06/16 04:29:25;;;;;;;27.00;16.00;;;;;;;12.91;100.00;100669.28;7395313;19;20392;-58
2022/06/16 04:31:55;;;;;;;86.10;43.13;;;;;;;13.16;100.00;100672.63;7389891;19;20398;-58
2022/06/16 04:34:27;;;;;;;81.47;44.13;;;;;;;13.13;100.00;100669.97;7395817;19;20925;-56
2022/06/16 04:36:56;;;;;;;42.63;24.27;;;;;;;13.08;100.00;100668.09;7389263;19;20400;-57
2022/06/16 04:39:26;;;;;;;12.33;6.17;;;;;;;13.00;100.00;100669.59;7395051;19;20400;-58
2022/06/16 04:41:55;;;;;;;21.33;12.03;;;;;;;13.09;100.00;100671.59;7387715;19;20724;-58
2022/06/16 04:44:25;;;;;;;10.23;5.20;;;;;;;13.04;100.00;100676.63;7395520;19;20477;-57
2022/06/16 04:46:55;;;;;;;12.53;7.63;;;;;;;13.19;100.00;100678.78;7389192;19;20382;-53
2022/06/16 04:49:27;;;;;;;8.93;3.80;;;;;;;13.35;100.00;100674.94;7396700;19;20403;-59
2022/06/16 04:51:56;;;;;;;9.03;4.00;;;;;;;13.00;100.00;100679.06;7388503;19;20384;-57
2022/06/16 04:54:26;;;;;;;15.23;7.00;;;;;;;13.24;100.00;100691.91;7395339;19;20450;-57
2022/06/16 04:56:56;;;;;;;8.10;3.40;;;;;;;13.00;100.00;100690.31;7388246;19;20928;-58
2022/06/16 04:59:25;;;;;;;14.00;4.63;;;;;;;13.01;100.00;100693.75;7394550;19;20422;-59
2022/06/16 05:01:56;;;;;;;12.33;4.33;;;;;;;13.03;100.00;100703.34;7386787;19;20735;-55
2022/06/16 05:04:28;;;;;;;7.53;3.77;;;;;;;13.18;100.00;100709.84;7399194;19;20405;-57
2022/06/16 05:06:58;;;;;;;9.67;3.37;;;;;;;13.04;100.00;100705.13;7387746;19;20398;-54
2022/06/16 05:09:28;;;;;;;11.17;3.33;;;;;;;12.95;100.00;100710.00;7394603;19;20410;-55
2022/06/16 05:11:57;;;;;;;7.40;3.33;;;;;;;13.10;100.00;100723.44;7388794;19;20736;-59
2022/06/16 05:14:27;;;;;;;6.20;3.43;;;;;;;13.18;100.00;100725.38;7393568;19;20396;-55
2022/06/16 05:16:57;;;;;;;7.47;3.13;;;;;;;13.05;100.00;100714.66;7386888;19;20395;-57
2022/06/16 05:19:30;;;;;;;5.73;3.20;;;;;;;13.35;100.00;100718.13;7393990;19;20415;-59
2022/06/16 05:22:01;;;;;;;13.03;3.70;;;;;;;13.31;100.00;100727.50;7386555;19;20386;-57
2022/06/16 05:24:30;;;;;;;6.50;2.80;;;;;;;13.41;100.00;100731.25;7394621;19;20737;-58
2022/06/16 05:27:00;;;;;;;5.60;3.30;;;;;;;13.50;100.00;100731.53;7387891;19;20467;-58
2022/06/16 05:29:30;;;;;;;10.27;3.30;;;;;;;13.44;100.00;100730.47;7393840;19;20403;-56
2022/06/16 05:32:00;;;;;;;5.43;3.00;;;;;;;13.49;100.00;100736.69;7387702;19;20759;-58
2022/06/16 05:34:32;;;;;;;7.83;3.10;;;;;;;13.22;100.00;100740.16;7394297;19;20432;-57
2022/06/16 05:37:02;;;;;;;9.93;3.93;;;;;;;13.06;100.00;100739.72;7386204;19;20398;-58
2022/06/16 05:39:31;;;;;;;5.83;2.77;;;;;;;13.21;100.00;100753.97;7393438;19;20405;-58
2022/06/16 05:42:01;;;;;;;6.90;3.70;;;;;;;13.30;100.00;100754.25;7386740;19;20740;-58
2022/06/16 05:44:30;;;;;;;6.20;3.40;;;;;;;13.21;100.00;100756.56;7393598;19;20911;-57
2022/06/16 05:47:00;;;;;;;10.70;3.40;;;;;;;13.30;100.00;100755.97;7387722;19;20395;-58
2022/06/16 05:49:33;;;;;;;6.57;2.97;;;;;;;13.50;100.00;100756.59;7393115;19;20498;-59
2022/06/16 05:52:03;;;;;;;10.47;3.67;;;;;;;13.44;100.00;100756.38;7386815;19;20407;-54
2022/06/16 05:54:33;;;;;;;7.23;3.30;;;;;;;13.46;100.00;100755.63;7393806;19;20395;-58
2022/06/16 05:57:03;;;;;;;5.53;2.90;;;;;;;13.36;100.00;100751.84;7387159;19;20402;-58
2022/06/16 05:59:33;;;;;;;23.40;12.07;;;;;;;13.63;100.00;100748.34;7393039;19;20397;-57
2022/06/16 06:02:02;;;;;;;13.80;6.33;;;;;;;13.75;100.00;100753.00;7386771;19;20905;-57
2022/06/16 06:04:35;;;;;;;12.97;5.80;;;;;;;13.76;100.00;100751.28;7395708;19;20401;-56
2022/06/16 06:07:05;;;;;;;10.57;5.00;;;;;;;13.82;100.00;100756.66;7385476;19;20402;-57
2022/06/16 06:17:43;;;;;;;7.73;3.70;;;;;;;13.55;100.00;100764.50;7386410;19;20425;-58
2022/06/16 06:20:16;;;;;;;14.37;4.33;;;;;;;13.55;100.00;100780.06;7394636;19;20441;-58
2022/06/16 06:22:46;;;;;;;5.97;3.60;;;;;;;13.57;100.00;100783.56;7384411;19;21005;-57
2022/06/16 06:25:16;;;;;;;5.50;3.10;;;;;;;13.70;100.00;100787.41;7393230;19;20476;-57
2022/06/16 06:27:48;;;;;;;9.53;3.37;;;;;;;13.71;100.00;100783.97;7390025;19;20419;-59
2022/06/16 06:30:20;;;;;;;12.17;3.40;;;;;;;13.74;100.00;100791.88;7398614;19;20486;-59
2022/06/16 06:32:50;;;;;;;7.80;3.27;;;;;;;13.79;100.00;100799.78;7392065;19;20426;-57
2022/06/16 06:35:22;;;;;;;11.57;3.97;;;;;;;13.87;100.00;100806.94;7400709;19;20394;-58
2022/06/16 06:37:52;;;;;;;9.20;2.57;;;;;;;13.90;100.00;100824.31;7391595;19;20433;-59
2022/06/16 06:40:25;;;;;;;6.27;3.47;;;;;;;14.03;100.00;100856.66;7398048;19;20419;-56
2022/06/16 06:42:55;;;;;;;5.03;2.27;;;;;;;14.07;100.00;100868.00;7374123;19;20439;-58
2022/06/16 06:45:24;;;;;;;10.50;5.10;;;;;;;14.27;100.00;100881.56;7400070;19;20385;-58
2022/06/16 06:47:55;;;;;;;6.90;2.53;;;;;;;14.43;100.00;100888.94;7391933;19;20515;-58
2022/06/16 06:50:29;;;;;;;9.23;2.83;;;;;;;14.50;100.00;100915.06;7397674;19;20418;-58
2022/06/16 06:52:59;;;;;;;6.77;3.00;;;;;;;14.57;100.00;100949.03;7391438;19;20446;-59
2022/06/16 06:55:29;;;;;;;3.70;2.03;;;;;;;14.58;100.00;100957.69;7404537;19;20385;-59
2022/06/16 06:57:59;;;;;;;4.90;2.57;;;;;;;14.73;100.00;100996.22;7392569;19;20402;-58
2022/06/16 07:00:32;;;;;;;9.80;2.87;;;;;;;14.67;100.00;101035.84;7402004;19;20452;-58
2022/06/16 07:03:02;;;;;;;5.60;2.23;;;;;;;14.78;100.00;101054.41;7390580;19;20449;-58
2022/06/16 07:05:34;;;;;;;4.50;1.83;;;;;;;14.84;100.00;101056.28;7399539;19;20384;-58
2022/06/16 07:08:03;;;;;;;4.23;1.73;;;;;;;14.97;100.00;101065.28;7390061;19;20420;-59
2022/06/16 07:10:33;;;;;;;5.60;2.13;;;;;;;15.12;100.00;101086.53;7397431;19;20416;-58
2022/06/16 07:13:02;;;;;;;6.07;1.90;;;;;;;15.19;100.00;101094.50;7389144;19;20945;-57
2022/06/16 07:15:34;;;;;;;5.07;2.03;;;;;;;15.19;100.00;101118.78;7399079;19;20395;-59
2022/06/16 07:18:03;;;;;;;3.80;1.77;;;;;;;15.21;100.00;101129.19;7391707;19;20418;-54
2022/06/16 07:20:36;;;;;;;4.53;2.30;;;;;;;15.33;100.00;101145.16;7396811;19;20773;-57
2022/06/16 07:23:06;;;;;;;3.97;2.00;;;;;;;15.37;100.00;101152.19;7389786;19;20762;-59
2022/06/16 07:25:36;;;;;;;5.00;2.23;;;;;;;15.44;100.00;101170.56;7399059;19;20404;-58
2022/06/16 07:28:06;;;;;;;6.10;2.80;;;;;;;15.46;100.00;101171.50;7389982;19;20777;-58
2022/06/16 07:30:36;;;;;;;7.10;2.00;;;;;;;15.52;100.00;101172.56;7396721;19;20485;-59
2022/06/16 07:33:05;;;;;;;4.60;2.23;;;;;;;15.56;100.00;101170.03;7389599;19;20501;-59
2022/06/16 07:35:40;;;;;;;4.70;2.00;;;;;;;15.47;100.00;101176.75;7398760;19;20389;-58
2022/06/16 07:38:10;;;;;;;8.20;1.70;;;;;;;15.51;100.00;101176.00;7386674;19;20428;-58
2022/06/16 07:40:40;;;;;;;4.53;1.60;;;;;;;15.55;100.00;101202.06;7396350;19;20485;-57
2022/06/16 07:43:10;;;;;;;4.27;1.63;;;;;;;15.55;100.00;101238.47;7387814;19;20443;-58
2022/06/16 07:45:39;;;;;;;7.47;2.90;;;;;;;15.73;100.00;101219.91;7398418;19;20385;-58
2022/06/16 07:48:09;;;;;;;4.67;2.17;;;;;;;15.73;100.00;101254.63;7389138;19;20767;-58
2022/06/16 07:50:42;;;;;;;4.40;1.90;;;;;;;15.92;100.00;101266.47;7399128;19;20497;-59
2022/06/16 07:53:11;;;;;;;2.83;1.17;;;;;;;15.84;100.00;101293.94;7392958;19;20445;-57
2022/06/16 07:55:41;;;;;;;14.07;4.33;;;;;;;15.91;100.00;101306.28;7400644;19;20970;-58
2022/06/16 07:58:10;;;;;;;2.83;1.27;;;;;;;15.88;100.00;101305.31;7389348;19;20428;-59
2022/06/16 08:00:40;;;;;;;11.23;6.40;;;;;;;16.03;100.00;101313.59;7395889;19;20429;-57
2022/06/16 08:03:10;;;;;;;17.60;9.70;;;;;;;16.15;100.00;101335.59;7389668;19;20515;-58
2022/06/16 08:05:45;;;;;;;7.43;3.80;;;;;;;16.17;100.00;101365.16;7397504;19;20391;-59
2022/06/16 08:08:14;;;;;;;17.53;3.63;;;;;;;16.35;100.00;101377.78;7386121;19;20449;-57
2022/06/16 08:10:44;;;;;;;18.43;6.07;;;;;;;16.42;100.00;101386.69;7399443;19;20426;-57
2022/06/16 08:13:14;;;;;;;7.40;2.83;;;;;;;16.31;100.00;101402.88;7389987;19;20437;-56
2022/06/16 08:15:45;;;;;;;11.50;6.13;;;;;;;16.39;100.00;101407.41;7398246;19;20420;-58
2022/06/16 08:18:17;;;;;;;14.10;7.00;;;;;;;16.57;100.00;101423.53;7390138;19;20418;-58
2022/06/16 08:20:49;;;;;;;7.53;3.70;;;;;;;16.43;100.00;101417.06;7394800;19;20825;-56
2022/06/16 08:23:19;;;;;;;11.70;4.37;;;;;;;16.33;100.00;101448.09;7388249;19;20449;-57
2022/06/16 08:25:50;;;;;;;11.03;5.60;;;;;;;16.31;100.00;101441.94;7401285;19;20408;-56
2022/06/16 08:28:22;;;;;;;22.37;11.27;;;;;;;16.47;100.00;101418.94;7389585;19;20429;-58
2022/06/16 08:30:51;;;;;;;9.27;3.63;;;;;;;16.31;100.00;101434.13;7394666;19;20427;-58
2022/06/16 08:33:21;;;;;;;5.03;1.60;;;;;;;16.42;100.00;101430.94;7388089;19;20780;-58
2022/06/16 08:35:53;;;;;;;7.97;3.87;;;;;;;16.55;100.00;101446.06;7396877;19;20394;-59
2022/06/16 08:38:23;;;;;;;8.20;5.40;;;;;;;16.68;100.00;101454.22;7387107;19;20413;-58
2022/06/16 08:41:11;;;;;;;3.93;1.20;;;;;;;16.71;100.00;101457.81;7394883;19;20439;-55
2022/06/16 08:43:43;;;;;;;38.87;12.33;;;;;;;16.72;100.00;101459.56;7385850;19;20428;-56
2022/06/16 08:46:17;;;;;;;2.60;1.10;;;;;;;16.72;100.00;101463.91;7396013;19;20754;-58
2022/06/16 08:48:58;;;;;;;7.20;1.80;;;;;;;16.70;100.00;101468.16;7387025;19;20430;-58
2022/06/16 08:51:39;;;;;;;4.30;1.73;;;;;;;16.72;100.00;101479.53;7393789;19;20762;-55
2022/06/16 08:54:23;;;;;;;3.17;1.37;;;;;;;16.86;100.00;101480.78;7388974;19;20760;-55
2022/06/16 08:56:57;;;;;;;30.47;9.20;;;;;;;16.95;100.00;101482.78;7389128;19;20394;-59
2022/06/16 08:59:34;;;;;;;4.63;1.77;;;;;;;17.05;100.00;101457.84;7397650;19;21000;-59
2022/06/16 09:02:08;;;;;;;5.97;1.77;;;;;;;17.12;100.00;101464.09;7382435;19;20462;-58
2022/06/16 09:04:43;;;;;;;10.80;3.93;;;;;;;17.32;100.00;101461.16;7394637;19;20429;-57
2022/06/16 09:07:25;;;;;;;5.90;2.07;;;;;;;17.48;100.00;101467.63;7386483;19;20407;-59
2022/06/16 09:10:18;;;;;;;5.70;1.77;;;;;;;17.53;100.00;101463.38;7393535;19;20417;-57
2022/06/16 09:13:19;;;;;;;4.30;1.90;;;;;;;17.41;100.00;101466.56;7385228;19;20483;-58
2022/06/16 09:15:53;;;;;;;4.80;1.13;;;;;;;17.30;100.00;101473.25;7397115;19;20476;-57
2022/06/16 09:18:36;;;;;;;14.60;3.83;;;;;;;17.44;100.00;101477.09;7387196;19;20419;-56
2022/06/16 09:21:13;;;;;;;72.87;19.37;;;;;;;17.49;100.00;101480.69;7392774;19;20494;-57
2022/06/16 09:23:59;;;;;;;6.07;2.07;;;;;;;17.58;100.00;101482.63;7384830;19;20622;-59
2022/06/16 09:26:32;;;;;;;5.87;1.67;;;;;;;17.73;100.00;101499.53;7394790;19;20385;-60
2022/06/16 09:29:06;;;;;;;19.37;5.53;;;;;;;17.69;100.00;101503.75;7376546;19;20943;-58
2022/06/16 09:31:41;;;;;;;4.77;1.90;;;;;;;17.55;100.00;101511.28;7394690;19;20923;-58
2022/06/16 09:34:14;;;;;;;4.17;1.33;;;;;;;17.76;100.00;101510.91;7393129;19;20433;-57
2022/06/16 09:36:47;;;;;;;10.90;3.70;;;;;;;17.80;100.00;101511.88;7394417;19;20394;-57
2022/06/16 09:39:22;;;;;;;7.50;2.40;;;;;;;18.08;100.00;101517.75;7392868;19;21251;-59
2022/06/16 09:45:03;;;;;;;3.70;1.50;;;;;;;18.08;100.00;101512.53;7393229;19;20379;-58
2022/06/16 09:47:37;;;;;;;4.37;1.40;;;;;;;18.18;100.00;101511.91;7384633;19;20420;-58
2022/06/16 09:50:11;;;;;;;6.10;1.90;;;;;;;17.99;100.00;101522.75;7392750;19;20431;-59
2022/06/16 09:52:44;;;;;;;81.50;57.97;;;;;;;18.23;100.00;101506.78;7385147;19;20490;-59
2022/06/16 09:55:22;;;;;;;5.97;3.33;;;;;;;18.37;100.00;101504.47;7394083;19;20466;-57
2022/06/16 09:57:56;;;;;;;11.33;4.13;;;;;;;18.40;100.00;101520.19;7386347;19;20407;-57
2022/06/16 10:00:27;;;;;;;8.37;2.67;;;;;;;18.39;100.00;101517.53;7395011;19;20419;-60
2022/06/16 10:03:00;;;;;;;3.90;1.70;;;;;;;18.60;100.00;101502.31;7400297;19;20451;-58
2022/06/16 10:05:39;;;;;;;9.20;2.63;;;;;;;18.51;100.00;101516.94;7399319;19;20367;-59
2022/06/16 10:08:14;;;;;;;12.57;3.83;;;;;;;18.53;100.00;101515.22;7404326;19;20398;-58
2022/06/16 10:10:49;;;;;;;6.80;2.57;;;;;;;18.84;100.00;101536.75;7391066;19;20478;-58
2022/06/16 10:13:25;;;;;;;16.87;9.70;;;;;;;18.45;100.00;101529.00;7401199;19;20466;-58
2022/06/16 10:16:00;;;;;;;4.03;1.40;;;;;;;18.72;100.00;101524.34;7402965;19;20391;-59
2022/06/16 10:18:30;;;;;;;9.93;2.20;;;;;;;18.65;100.00;101543.34;7391599;19;20469;-59
2022/06/16 10:21:02;;;;;;;6.53;3.10;;;;;;;18.81;100.00;101537.56;7397505;19;20425;-57
2022/06/16 10:23:35;;;;;;;3.80;1.43;;;;;;;19.01;100.00;101543.19;7400865;19;20461;-59
2022/06/16 10:26:09;;;;;;;5.30;2.10;;;;;;;19.09;100.00;101553.84;7397632;19;20451;-59
2022/06/16 10:28:41;;;;;;;5.40;2.03;;;;;;;18.81;100.00;101555.00;7400898;19;20386;-58
2022/06/16 10:31:10;;;;;;;4.40;1.50;;;;;;;18.69;100.00;101547.78;7397319;19;20756;-59
2022/06/16 10:33:56;;;;;;;6.10;1.50;;;;;;;19.06;100.00;101543.31;7400608;19;20384;-59
2022/06/16 10:36:27;;;;;;;4.20;1.47;;;;;;;19.35;100.00;101547.31;7400708;19;20399;-58
2022/06/16 10:39:13;;;;;;;25.70;7.00;;;;;;;19.16;100.00;101563.56;7399713;19;20389;-59
2022/06/16 10:41:53;;;;;;;6.30;1.73;;;;;;;19.45;100.00;101575.44;7400452;19;20798;-58
2022/06/16 10:44:26;;;;;;;3.57;1.27;;;;;;;19.19;100.00;101569.69;7399471;19;20394;-57
2022/06/16 10:46:58;;;;;;;7.17;1.23;;;;;;;18.71;100.00;101578.31;7400217;19;20391;-57
2022/06/16 10:49:34;;;;;;;6.93;1.60;;;;;;;18.59;100.00;101576.34;7399153;19;20395;-59
2022/06/16 10:52:09;;;;;;;3.77;1.43;;;;;;;19.11;100.00;101585.25;7399381;19;20387;-60
2022/06/16 10:54:45;;;;;;;5.93;1.80;;;;;;;19.69;100.00;101584.56;7391753;19;20411;-57
2022/06/16 10:57:20;;;;;;;6.93;1.90;;;;;;;19.88;100.00;101587.50;7399802;19;20452;-59
2022/06/16 10:59:52;;;;;;;4.67;1.87;;;;;;;19.92;100.00;101594.53;7391523;19;20423;-59
2022/06/16 11:02:25;;;;;;;5.40;1.83;;;;;;;20.23;100.00;101585.44;7400068;19;20387;-59
2022/06/16 11:05:01;;;;;;;14.63;2.50;;;;;;;20.08;100.00;101596.56;7392120;19;20461;-57
2022/06/16 11:07:36;;;;;;;4.33;1.40;;;;;;;20.07;100.00;101604.41;7399503;19;20889;-58
2022/06/16 11:10:15;;;;;;;5.03;1.33;;;;;;;19.85;100.00;101598.78;7389631;19;20826;-59
2022/06/16 11:12:49;;;;;;;6.67;1.70;;;;;;;19.15;100.00;101594.91;7399565;19;20489;-56
2022/06/16 11:15:25;;;;;;;4.57;1.30;;;;;;;19.13;100.00;101591.41;7391357;19;20510;-59
2022/06/16 11:17:57;;;;;;;4.43;1.40;;;;;;;19.61;100.00;101580.91;7401183;19;20399;-58
2022/06/16 11:20:37;;;;;;;6.70;2.03;;;;;;;19.77;100.00;101579.44;7390738;19;20506;-56
2022/06/16 11:23:32;;;;;;;5.77;1.60;;;;;;;19.91;100.00;101587.53;7398780;19;20991;-59
2022/06/16 11:26:09;;;;;;;14.27;4.60;;;;;;;19.79;100.00;101582.97;7386663;19;20430;-58
2022/06/16 11:28:49;;;;;;;60.47;16.90;;;;;;;19.67;100.00;101610.72;7398714;19;20474;-55
2022/06/16 11:31:22;;;;;;;4.87;1.60;;;;;;;20.00;100.00;101605.16;7391148;19;20470;-58
2022/06/16 11:34:10;;;;;;;8.03;2.30;;;;;;;20.09;100.00;101616.66;7398708;19;20388;-56
2022/06/16 11:37:01;;;;;;;5.63;1.20;;;;;;;19.60;100.00;101615.78;7397426;19;20446;-58
2022/06/16 11:39:41;;;;;;;4.40;1.40;;;;;;;19.43;100.00;101596.31;7389353;19;20419;-58
2022/06/16 11:42:19;;;;;;;5.73;1.30;;;;;;;19.95;100.00;101602.44;7397970;19;20929;-58
2022/06/16 11:44:55;;;;;;;6.10;1.13;;;;;;;20.20;100.00;101605.47;7390222;19;20434;-58
2022/06/16 11:47:34;;;;;;;9.50;1.67;;;;;;;20.15;100.00;101617.63;7398268;19;20383;-59
2022/06/16 11:50:09;;;;;;;4.70;1.20;;;;;;;20.28;100.00;101609.09;7386427;19;20419;-59
2022/06/16 11:52:46;;;;;;;8.17;1.40;;;;;;;20.10;100.00;101609.69;7397416;19;20387;-60
2022/06/16 11:55:27;;;;;;;4.33;1.30;;;;;;;19.72;100.00;101608.16;7390571;19;20429;-59
2022/06/16 11:58:05;;;;;;;3.37;1.10;;;;;;;20.27;100.00;101612.56;7398136;19;20388;-57